sensor_id;sensor_type;location;lat;lon;timestamp;pressure;altitude;pressure_sealevel;temperature;humidity
41624;BME280;27319;50.306;18.926;2024-02-23T00:03:06;96480.03;;;7.86;80.80
41624;BME280;27319;50.306;18.926;2024-02-23T00:06:08;96485.59;;;7.75;81.56
41624;BME280;27319;50.306;18.926;2024-02-23T00:09:09;96482.13;;;7.75;81.59
41624;BME280;27319;50.306;18.926;2024-02-23T00:12:30;96480.16;;;7.79;81.14
41624;BME280;27319;50.306;18.926;2024-02-23T00:16:11;96480.84;;;7.83;81.11
41624;BME280;27319;50.306;18.926;2024-02-23T00:19:13;96488.25;;;7.99;79.83
41624;BME280;27319;50.306;18.926;2024-02-23T00:22:34;96476.16;;;7.87;81.39
41624;BME280;27319;50.306;18.926;2024-02-23T00:26:34;96471.44;;;7.91;80.75
41624;BME280;27319;50.306;18.926;2024-02-23T00:30:35;96467.03;;;7.81;81.39
41624;BME280;27319;50.306;18.926;2024-02-23T00:34:36;96470.25;;;7.72;82.54
41624;BME280;27319;50.306;18.926;2024-02-23T00:38:37;96472.19;;;7.72;81.69
41624;BME280;27319;50.306;18.926;2024-02-23T00:42:37;96462.72;;;7.64;82.69
41624;BME280;27319;50.306;18.926;2024-02-23T00:46:18;96467.34;;;7.63;82.66
41624;BME280;27319;50.306;18.926;2024-02-23T00:49:19;96466.56;;;7.63;83.35
41624;BME280;27319;50.306;18.926;2024-02-23T00:52:20;96462.94;;;7.73;82.64
41624;BME280;27319;50.306;18.926;2024-02-23T00:55:21;96472.34;;;7.84;81.39
41624;BME280;27319;50.306;18.926;2024-02-23T00:58:42;96465.16;;;7.78;82.21
41624;BME280;27319;50.306;18.926;2024-02-23T01:02:43;96469.38;;;7.79;82.21
41624;BME280;27319;50.306;18.926;2024-02-23T01:06:24;96470.63;;;7.74;83.05
41624;BME280;27319;50.306;18.926;2024-02-23T01:09:45;96479.78;;;7.77;82.39
41624;BME280;27319;50.306;18.926;2024-02-23T01:13:46;96484.69;;;7.82;82.18
41624;BME280;27319;50.306;18.926;2024-02-23T01:17:47;96478.56;;;7.81;82.18
41624;BME280;27319;50.306;18.926;2024-02-23T01:21:47;96477.81;;;7.81;82.94
41624;BME280;27319;50.306;18.926;2024-02-23T01:25:48;96479.44;;;7.75;82.91
41624;BME280;27319;50.306;18.926;2024-02-23T01:29:49;96485.66;;;7.72;82.85
41624;BME280;27319;50.306;18.926;2024-02-23T01:33:50;96479.31;;;7.82;82.51
41624;BME280;27319;50.306;18.926;2024-02-23T01:37:52;96487.84;;;7.80;82.03
41624;BME280;27319;50.306;18.926;2024-02-23T01:41:52;96477.94;;;7.74;82.12
41624;BME280;27319;50.306;18.926;2024-02-23T01:45:32;96469.97;;;7.67;83.74
41624;BME280;27319;50.306;18.926;2024-02-23T01:48:33;96465.34;;;7.67;83.73
41624;BME280;27319;50.306;18.926;2024-02-23T01:51:54;96454.84;;;7.73;83.70
41624;BME280;27319;50.306;18.926;2024-02-23T01:55:55;96458.97;;;7.58;85.26
41624;BME280;27319;50.306;18.926;2024-02-23T01:59:39;96461.44;;;7.48;87.07
41624;BME280;27319;50.306;18.926;2024-02-23T02:02:40;96459.34;;;7.60;84.81
41624;BME280;27319;50.306;18.926;2024-02-23T02:06:01;96462.72;;;7.64;84.44
41624;BME280;27319;50.306;18.926;2024-02-23T02:10:02;96463.34;;;7.71;82.03
41624;BME280;27319;50.306;18.926;2024-02-23T02:14:02;96452.38;;;7.82;81.46
41624;BME280;27319;50.306;18.926;2024-02-23T02:18:03;96459.88;;;7.71;82.95
41624;BME280;27319;50.306;18.926;2024-02-23T02:22:04;96457.59;;;7.69;83.07
41624;BME280;27319;50.306;18.926;2024-02-23T02:25:56;96453.06;;;7.66;83.07
41624;BME280;27319;50.306;18.926;2024-02-23T02:29:17;96467.38;;;7.83;81.38
41624;BME280;27319;50.306;18.926;2024-02-23T02:33:18;96463.41;;;7.68;83.72
41624;BME280;27319;50.306;18.926;2024-02-23T02:37:18;96482.50;;;7.77;82.98
41624;BME280;27319;50.306;18.926;2024-02-23T02:41:19;96481.81;;;7.73;82.83
41624;BME280;27319;50.306;18.926;2024-02-23T02:45:20;96491.53;;;7.67;84.52
41624;BME280;27319;50.306;18.926;2024-02-23T02:49:21;96489.78;;;7.57;85.62
41624;BME280;27319;50.306;18.926;2024-02-23T02:53:22;96491.41;;;7.50;85.85
41624;BME280;27319;50.306;18.926;2024-02-23T02:57:22;96485.25;;;7.50;85.42
41624;BME280;27319;50.306;18.926;2024-02-23T03:01:03;96495.03;;;7.40;86.34
41624;BME280;27319;50.306;18.926;2024-02-23T03:04:04;96490.00;;;7.42;86.77
41624;BME280;27319;50.306;18.926;2024-02-23T03:07:05;96495.28;;;7.49;85.42
41624;BME280;27319;50.306;18.926;2024-02-23T03:10:06;96499.63;;;7.43;86.64
41624;BME280;27319;50.306;18.926;2024-02-23T03:13:27;96505.94;;;7.57;84.51
41624;BME280;27319;50.306;18.926;2024-02-23T03:17:28;96500.53;;;7.57;85.12
41624;BME280;27319;50.306;18.926;2024-02-23T03:21:30;96506.81;;;7.50;85.84
41624;BME280;27319;50.306;18.926;2024-02-23T03:25:30;96509.59;;;7.46;86.37
41624;BME280;27319;50.306;18.926;2024-02-23T03:29:30;96511.56;;;7.42;86.68
41624;BME280;27319;50.306;18.926;2024-02-23T03:33:31;96523.03;;;7.46;86.78
41624;BME280;27319;50.306;18.926;2024-02-23T03:37:32;96519.22;;;7.44;87.43
41624;BME280;27319;50.306;18.926;2024-02-23T03:41:32;96519.16;;;7.47;86.76
41624;BME280;27319;50.306;18.926;2024-02-23T03:45:33;96521.75;;;7.31;88.21
41624;BME280;27319;50.306;18.926;2024-02-23T03:49:34;96521.75;;;7.31;88.23
41624;BME280;27319;50.306;18.926;2024-02-23T03:53:35;96517.53;;;7.30;87.83
41624;BME280;27319;50.306;18.926;2024-02-23T03:57:35;96530.03;;;7.40;86.72
41624;BME280;27319;50.306;18.926;2024-02-23T04:01:39;96530.97;;;7.30;88.26
41624;BME280;27319;50.306;18.926;2024-02-23T04:05:40;96530.13;;;7.37;87.91
41624;BME280;27319;50.306;18.926;2024-02-23T04:09:40;96527.94;;;7.28;88.08
41624;BME280;27319;50.306;18.926;2024-02-23T04:13:41;96540.34;;;7.22;88.59
41624;BME280;27319;50.306;18.926;2024-02-23T04:17:42;96543.28;;;7.31;87.49
41624;BME280;27319;50.306;18.926;2024-02-23T04:21:43;96533.97;;;7.36;87.65
41624;BME280;27319;50.306;18.926;2024-02-23T04:25:24;96539.31;;;7.39;86.79
41624;BME280;27319;50.306;18.926;2024-02-23T04:28:44;96547.41;;;7.39;86.79
41624;BME280;27319;50.306;18.926;2024-02-23T04:32:45;96556.16;;;7.43;86.72
41624;BME280;27319;50.306;18.926;2024-02-23T04:36:46;96557.69;;;7.44;86.52
41624;BME280;27319;50.306;18.926;2024-02-23T04:40:46;96575.38;;;7.45;86.25
41624;BME280;27319;50.306;18.926;2024-02-23T04:44:47;96570.91;;;7.35;87.33
41624;BME280;27319;50.306;18.926;2024-02-23T04:48:47;96569.47;;;7.27;88.75
41624;BME280;27319;50.306;18.926;2024-02-23T04:52:48;96569.09;;;7.29;88.88
41624;BME280;27319;50.306;18.926;2024-02-23T04:56:49;96569.94;;;7.22;89.40
41624;BME280;27319;50.306;18.926;2024-02-23T05:00:50;96580.41;;;7.17;90.30
41624;BME280;27319;50.306;18.926;2024-02-23T05:04:51;96589.66;;;7.16;90.35
41624;BME280;27319;50.306;18.926;2024-02-23T05:08:51;96599.66;;;7.15;90.37
41624;BME280;27319;50.306;18.926;2024-02-23T05:12:52;96592.81;;;7.10;91.34
41624;BME280;27319;50.306;18.926;2024-02-23T05:16:53;96600.00;;;6.90;92.95
41624;BME280;27319;50.306;18.926;2024-02-23T05:20:54;96604.53;;;6.97;92.93
41624;BME280;27319;50.306;18.926;2024-02-23T05:24:54;96596.88;;;6.92;93.65
41624;BME280;27319;50.306;18.926;2024-02-23T05:28:55;96601.66;;;6.81;94.05
41624;BME280;27319;50.306;18.926;2024-02-23T05:32:56;96606.94;;;6.88;94.02
41624;BME280;27319;50.306;18.926;2024-02-23T05:36:57;96619.41;;;6.75;95.29
41624;BME280;27319;50.306;18.926;2024-02-23T05:40:57;96617.16;;;6.69;95.44
41624;BME280;27319;50.306;18.926;2024-02-23T05:44:58;96626.34;;;6.72;95.20
41624;BME280;27319;50.306;18.926;2024-02-23T05:48:59;96645.50;;;6.78;95.09
41624;BME280;27319;50.306;18.926;2024-02-23T05:53:00;96652.41;;;6.79;94.72
41624;BME280;27319;50.306;18.926;2024-02-23T05:57:01;96656.09;;;6.92;94.11
41624;BME280;27319;50.306;18.926;2024-02-23T06:01:01;96663.91;;;6.83;94.16
41624;BME280;27319;50.306;18.926;2024-02-23T06:05:02;96671.72;;;6.70;96.95
41624;BME280;27319;50.306;18.926;2024-02-23T06:09:03;96676.34;;;6.69;96.85
41624;BME280;27319;50.306;18.926;2024-02-23T06:12:44;96677.06;;;6.73;96.89
41624;BME280;27319;50.306;18.926;2024-02-23T06:15:44;96678.88;;;6.84;96.36
41624;BME280;27319;50.306;18.926;2024-02-23T06:19:06;96676.22;;;6.80;96.76
41624;BME280;27319;50.306;18.926;2024-02-23T06:23:07;96691.50;;;6.87;96.10
41624;BME280;27319;50.306;18.926;2024-02-23T06:27:07;96709.19;;;6.88;96.70
41624;BME280;27319;50.306;18.926;2024-02-23T06:31:08;96714.88;;;6.97;95.79
41624;BME280;27319;50.306;18.926;2024-02-23T06:35:09;96730.56;;;7.02;95.55
41624;BME280;27319;50.306;18.926;2024-02-23T06:39:10;96742.19;;;6.95;95.80
41624;BME280;27319;50.306;18.926;2024-02-23T06:43:10;96735.31;;;6.91;96.02
41624;BME280;27319;50.306;18.926;2024-02-23T06:47:11;96743.38;;;6.91;96.44
41624;BME280;27319;50.306;18.926;2024-02-23T06:51:12;96747.59;;;6.92;96.47
41624;BME280;27319;50.306;18.926;2024-02-23T06:55:13;96750.69;;;6.90;97.21
41624;BME280;27319;50.306;18.926;2024-02-23T06:59:14;96750.66;;;6.94;96.65
41624;BME280;27319;50.306;18.926;2024-02-23T07:03:14;96751.81;;;6.93;97.74
41624;BME280;27319;50.306;18.926;2024-02-23T07:07:15;96749.84;;;6.97;97.49
41624;BME280;27319;50.306;18.926;2024-02-23T07:10:56;96759.03;;;7.03;97.55
41624;BME280;27319;50.306;18.926;2024-02-23T07:13:57;96763.63;;;7.02;97.43
41624;BME280;27319;50.306;18.926;2024-02-23T07:17:18;96749.03;;;7.00;97.87
41624;BME280;27319;50.306;18.926;2024-02-23T07:21:19;96771.38;;;6.97;97.99
41624;BME280;27319;50.306;18.926;2024-02-23T07:25:00;96768.94;;;7.09;97.51
41624;BME280;27319;50.306;18.926;2024-02-23T07:28:23;96773.19;;;7.07;97.41
41624;BME280;27319;50.306;18.926;2024-02-23T07:32:24;96766.72;;;7.01;98.10
41624;BME280;27319;50.306;18.926;2024-02-23T07:36:25;96775.81;;;7.14;97.52
41624;BME280;27319;50.306;18.926;2024-02-23T07:40:26;96781.25;;;7.07;98.67
41624;BME280;27319;50.306;18.926;2024-02-23T07:44:27;96782.00;;;7.11;97.88
41624;BME280;27319;50.306;18.926;2024-02-23T07:48:27;96784.34;;;7.05;99.07
41624;BME280;27319;50.306;18.926;2024-02-23T07:52:28;96780.34;;;7.21;98.31
41624;BME280;27319;50.306;18.926;2024-02-23T07:56:29;96785.03;;;7.17;98.74
41624;BME280;27319;50.306;18.926;2024-02-23T08:00:30;96784.22;;;7.20;98.28
41624;BME280;27319;50.306;18.926;2024-02-23T08:04:31;96780.31;;;7.24;99.62
41624;BME280;27319;50.306;18.926;2024-02-23T08:08:12;96788.72;;;7.30;98.54
41624;BME280;27319;50.306;18.926;2024-02-23T08:11:12;96788.66;;;7.33;98.88
41624;BME280;27319;50.306;18.926;2024-02-23T08:14:34;96791.38;;;7.33;98.52
41624;BME280;27319;50.306;18.926;2024-02-23T08:18:35;96795.97;;;7.36;98.99
41624;BME280;27319;50.306;18.926;2024-02-23T08:22:36;96795.13;;;7.43;98.68
41624;BME280;27319;50.306;18.926;2024-02-23T08:26:36;96795.50;;;7.41;98.34
41624;BME280;27319;50.306;18.926;2024-02-23T08:30:37;96807.72;;;7.49;98.26
41624;BME280;27319;50.306;18.926;2024-02-23T08:34:38;96803.44;;;7.56;98.49
41624;BME280;27319;50.306;18.926;2024-02-23T08:38:39;96796.25;;;7.45;98.84
41624;BME280;27319;50.306;18.926;2024-02-23T08:42:39;96807.38;;;7.47;99.11
41624;BME280;27319;50.306;18.926;2024-02-23T08:46:40;96803.13;;;7.50;99.19
41624;BME280;27319;50.306;18.926;2024-02-23T08:50:41;96805.44;;;7.48;99.26
41624;BME280;27319;50.306;18.926;2024-02-23T08:54:22;96805.00;;;7.53;98.86
41624;BME280;27319;50.306;18.926;2024-02-23T08:57:23;96806.84;;;7.60;98.28
41624;BME280;27319;50.306;18.926;2024-02-23T09:00:24;96814.94;;;7.60;98.47
41624;BME280;27319;50.306;18.926;2024-02-23T09:03:24;96815.94;;;7.73;98.40
41624;BME280;27319;50.306;18.926;2024-02-23T09:06:26;96811.34;;;7.70;98.52
41624;BME280;27319;50.306;18.926;2024-02-23T09:09:26;96818.63;;;7.73;98.49
41624;BME280;27319;50.306;18.926;2024-02-23T09:12:27;96818.22;;;7.74;98.93
41624;BME280;27319;50.306;18.926;2024-02-23T09:15:28;96828.94;;;7.78;99.01
41624;BME280;27319;50.306;18.926;2024-02-23T09:18:29;96829.56;;;7.89;97.51
41624;BME280;27319;50.306;18.926;2024-02-23T09:21:30;96836.50;;;7.90;97.91
41624;BME280;27319;50.306;18.926;2024-02-23T09:24:31;96845.22;;;8.01;97.36
41624;BME280;27319;50.306;18.926;2024-02-23T09:27:32;96848.63;;;8.05;98.42
41624;BME280;27319;50.306;18.926;2024-02-23T09:30:33;96856.63;;;8.12;97.75
41624;BME280;27319;50.306;18.926;2024-02-23T09:33:34;96859.16;;;8.23;97.32
41624;BME280;27319;50.306;18.926;2024-02-23T09:36:35;96861.03;;;8.29;96.97
41624;BME280;27319;50.306;18.926;2024-02-23T09:39:35;96853.16;;;8.42;97.75
41624;BME280;27319;50.306;18.926;2024-02-23T09:42:36;96862.69;;;8.50;96.87
41624;BME280;27319;50.306;18.926;2024-02-23T09:45:38;96875.66;;;8.59;96.90
41624;BME280;27319;50.306;18.926;2024-02-23T09:48:40;96877.19;;;8.60;96.63
41624;BME280;27319;50.306;18.926;2024-02-23T09:51:41;96880.63;;;8.64;97.49
41624;BME280;27319;50.306;18.926;2024-02-23T09:54:42;96888.28;;;8.65;98.12
41624;BME280;27319;50.306;18.926;2024-02-23T09:57:44;96885.53;;;8.69;97.04
41624;BME280;27319;50.306;18.926;2024-02-23T10:00:46;96889.34;;;8.72;96.31
41624;BME280;27319;50.306;18.926;2024-02-23T10:03:47;96879.19;;;8.79;97.09
41624;BME280;27319;50.306;18.926;2024-02-23T10:07:08;96882.63;;;8.83;97.53
41624;BME280;27319;50.306;18.926;2024-02-23T10:11:09;96886.84;;;8.84;97.70
41624;BME280;27319;50.306;18.926;2024-02-23T10:15:09;96886.44;;;8.86;97.29
41624;BME280;27319;50.306;18.926;2024-02-23T10:19:10;96879.09;;;8.86;96.84
41624;BME280;27319;50.306;18.926;2024-02-23T10:23:11;96885.31;;;8.83;96.57
41624;BME280;27319;50.306;18.926;2024-02-23T10:27:12;96875.22;;;8.87;96.94
41624;BME280;27319;50.306;18.926;2024-02-23T10:31:13;96886.13;;;8.80;97.23
41624;BME280;27319;50.306;18.926;2024-02-23T10:35:14;96891.53;;;8.80;96.65
41624;BME280;27319;50.306;18.926;2024-02-23T10:39:18;96878.88;;;9.00;97.27
41624;BME280;27319;50.306;18.926;2024-02-23T10:43:19;96874.31;;;8.97;96.90
41624;BME280;27319;50.306;18.926;2024-02-23T10:47:19;96897.53;;;8.91;96.77
41624;BME280;27319;50.306;18.926;2024-02-23T10:51:19;96906.09;;;8.86;95.36
41624;BME280;27319;50.306;18.926;2024-02-23T10:55:01;96918.13;;;8.82;95.72
41624;BME280;27319;50.306;18.926;2024-02-23T10:58:06;96919.28;;;8.81;95.82
41624;BME280;27319;50.306;18.926;2024-02-23T11:01:10;96925.72;;;8.63;95.58
41624;BME280;27319;50.306;18.926;2024-02-23T11:04:31;96933.06;;;8.63;95.37
41624;BME280;27319;50.306;18.926;2024-02-23T11:08:32;96934.22;;;8.62;95.20
41624;BME280;27319;50.306;18.926;2024-02-23T11:12:33;96925.91;;;8.49;95.83
41624;BME280;27319;50.306;18.926;2024-02-23T11:16:34;96927.03;;;8.52;96.67
41624;BME280;27319;50.306;18.926;2024-02-23T11:20:35;96942.88;;;8.50;94.78
41624;BME280;27319;50.306;18.926;2024-02-23T11:24:41;96950.50;;;8.55;95.11
41624;BME280;27319;50.306;18.926;2024-02-23T11:28:49;96967.06;;;8.57;94.79
41624;BME280;27319;50.306;18.926;2024-02-23T11:32:58;96957.44;;;8.56;95.27
41624;BME280;27319;50.306;18.926;2024-02-23T11:36:56;96948.97;;;8.54;97.16
41624;BME280;27319;50.306;18.926;2024-02-23T11:40:56;96957.06;;;8.54;96.79
41624;BME280;27319;50.306;18.926;2024-02-23T11:44:57;96955.06;;;8.58;97.30
41624;BME280;27319;50.306;18.926;2024-02-23T11:48:55;96949.69;;;8.58;96.00
41624;BME280;27319;50.306;18.926;2024-02-23T11:51:56;96971.91;;;8.69;95.44
41624;BME280;27319;50.306;18.926;2024-02-23T11:54:57;96975.94;;;8.57;95.44
41624;BME280;27319;50.306;18.926;2024-02-23T11:57:58;96976.31;;;8.56;95.90
41624;BME280;27319;50.306;18.926;2024-02-23T12:01:02;96981.34;;;8.54;96.00
41624;BME280;27319;50.306;18.926;2024-02-23T12:04:03;96992.06;;;8.61;95.88
41624;BME280;27319;50.306;18.926;2024-02-23T12:07:04;97006.72;;;8.60;95.88
41624;BME280;27319;50.306;18.926;2024-02-23T12:10:05;96997.50;;;8.57;96.29
41624;BME280;27319;50.306;18.926;2024-02-23T12:13:27;96993.59;;;8.62;96.20
41624;BME280;27319;50.306;18.926;2024-02-23T12:17:08;96983.59;;;8.59;97.40
41624;BME280;27319;50.306;18.926;2024-02-23T12:20:09;96971.59;;;8.63;97.34
41624;BME280;27319;50.306;18.926;2024-02-23T12:23:11;96969.44;;;8.78;96.96
41624;BME280;27319;50.306;18.926;2024-02-23T12:26:32;96973.69;;;8.79;96.93
41624;BME280;27319;50.306;18.926;2024-02-23T12:30:33;96974.44;;;8.80;97.70
41624;BME280;27319;50.306;18.926;2024-02-23T12:34:34;96977.03;;;8.87;96.96
41624;BME280;27319;50.306;18.926;2024-02-23T12:38:35;96970.97;;;8.79;99.02
41624;BME280;27319;50.306;18.926;2024-02-23T12:42:35;96976.66;;;8.88;98.17
41624;BME280;27319;50.306;18.926;2024-02-23T12:46:36;96972.72;;;8.93;97.03
41624;BME280;27319;50.306;18.926;2024-02-23T12:50:36;96983.13;;;8.94;98.67
41624;BME280;27319;50.306;18.926;2024-02-23T12:54:37;96978.59;;;8.88;97.63
41624;BME280;27319;50.306;18.926;2024-02-23T12:58:38;96990.16;;;8.88;98.10
41624;BME280;27319;50.306;18.926;2024-02-23T13:02:39;96998.94;;;8.92;98.36
41624;BME280;27319;50.306;18.926;2024-02-23T13:06:39;96994.22;;;9.00;97.45
41624;BME280;27319;50.306;18.926;2024-02-23T13:10:40;96992.28;;;9.00;97.71
41624;BME280;27319;50.306;18.926;2024-02-23T13:14:41;97004.88;;;9.11;96.98
41624;BME280;27319;50.306;18.926;2024-02-23T13:18:42;97008.47;;;9.00;97.03
41624;BME280;27319;50.306;18.926;2024-02-23T13:22:42;96998.75;;;9.06;96.08
41624;BME280;27319;50.306;18.926;2024-02-23T13:26:43;96993.78;;;9.05;96.85
41624;BME280;27319;50.306;18.926;2024-02-23T13:30:44;96992.66;;;9.02;97.31
41624;BME280;27319;50.306;18.926;2024-02-23T13:34:45;96998.84;;;8.99;96.99
41624;BME280;27319;50.306;18.926;2024-02-23T13:38:46;97005.44;;;8.98;97.71
41624;BME280;27319;50.306;18.926;2024-02-23T13:42:50;97006.72;;;8.90;98.89
41624;BME280;27319;50.306;18.926;2024-02-23T13:46:50;97021.41;;;8.86;98.53
41624;BME280;27319;50.306;18.926;2024-02-23T13:50:51;97027.56;;;8.86;98.78
41624;BME280;27319;50.306;18.926;2024-02-23T13:54:52;97037.31;;;8.80;100.00
41624;BME280;27319;50.306;18.926;2024-02-23T13:58:53;97028.50;;;8.76;98.75
41624;BME280;27319;50.306;18.926;2024-02-23T14:02:54;97023.97;;;8.66;99.01
41624;BME280;27319;50.306;18.926;2024-02-23T14:06:55;97030.53;;;8.68;98.81
41624;BME280;27319;50.306;18.926;2024-02-23T14:10:55;97028.69;;;8.58;98.73
41624;BME280;27319;50.306;18.926;2024-02-23T14:14:56;97034.53;;;8.57;99.24
41624;BME280;27319;50.306;18.926;2024-02-23T14:18:37;97040.63;;;8.61;99.06
41624;BME280;27319;50.306;18.926;2024-02-23T14:21:39;97042.28;;;8.51;98.90
41624;BME280;27319;50.306;18.926;2024-02-23T14:24:40;97043.97;;;8.38;99.63
41624;BME280;27319;50.306;18.926;2024-02-23T14:28:01;97045.13;;;8.41;99.52
41624;BME280;27319;50.306;18.926;2024-02-23T14:32:02;97039.44;;;8.32;99.08
41624;BME280;27319;50.306;18.926;2024-02-23T14:36:02;97035.53;;;8.36;99.28
41624;BME280;27319;50.306;18.926;2024-02-23T14:40:03;97043.69;;;8.25;100.00
41624;BME280;27319;50.306;18.926;2024-02-23T14:44:04;97048.31;;;8.28;100.00
41624;BME280;27319;50.306;18.926;2024-02-23T14:48:04;97037.78;;;8.41;99.04
41624;BME280;27319;50.306;18.926;2024-02-23T14:52:05;97036.38;;;8.26;98.52
41624;BME280;27319;50.306;18.926;2024-02-23T14:56:06;97040.56;;;8.34;98.68
41624;BME280;27319;50.306;18.926;2024-02-23T15:00:07;97047.88;;;8.34;99.50
41624;BME280;27319;50.306;18.926;2024-02-23T15:04:08;97048.69;;;8.27;99.24
41624;BME280;27319;50.306;18.926;2024-02-23T15:08:08;97044.91;;;8.21;98.56
41624;BME280;27319;50.306;18.926;2024-02-23T15:12:09;97041.13;;;8.15;98.69
41624;BME280;27319;50.306;18.926;2024-02-23T15:16:10;97036.28;;;7.99;99.27
41624;BME280;27319;50.306;18.926;2024-02-23T15:20:14;97032.03;;;7.98;99.13
41624;BME280;27319;50.306;18.926;2024-02-23T15:24:15;97025.69;;;7.78;100.00
41624;BME280;27319;50.306;18.926;2024-02-23T15:28:15;97032.25;;;7.77;100.00
41624;BME280;27319;50.306;18.926;2024-02-23T15:32:16;97026.13;;;7.73;100.00
41624;BME280;27319;50.306;18.926;2024-02-23T15:36:17;97033.00;;;7.81;99.33
41624;BME280;27319;50.306;18.926;2024-02-23T15:39:58;97034.94;;;7.77;98.93
41624;BME280;27319;50.306;18.926;2024-02-23T15:42:58;97037.63;;;7.77;99.00
41624;BME280;27319;50.306;18.926;2024-02-23T15:46:19;97049.28;;;7.67;99.15
41624;BME280;27319;50.306;18.926;2024-02-23T15:50:20;97045.06;;;7.66;99.17
41624;BME280;27319;50.306;18.926;2024-02-23T15:54:21;97047.00;;;7.62;98.96
41624;BME280;27319;50.306;18.926;2024-02-23T15:58:22;97044.72;;;7.57;99.28
41624;BME280;27319;50.306;18.926;2024-02-23T16:02:23;97043.19;;;7.59;99.15
41624;BME280;27319;50.306;18.926;2024-02-23T16:06:23;97044.78;;;7.49;99.84
41624;BME280;27319;50.306;18.926;2024-02-23T16:10:24;97054.41;;;7.50;99.51
41624;BME280;27319;50.306;18.926;2024-02-23T16:14:25;97050.28;;;7.35;100.00
41624;BME280;27319;50.306;18.926;2024-02-23T16:18:26;97067.66;;;7.27;100.00
41624;BME280;27319;50.306;18.926;2024-02-23T16:21:36;97053.44;;;7.23;100.00
41624;BME280;27319;50.306;18.926;2024-02-23T16:24:38;97061.09;;;7.32;100.00
41624;BME280;27319;50.306;18.926;2024-02-23T16:27:39;97061.84;;;7.32;100.00
41624;BME280;27319;50.306;18.926;2024-02-23T16:30:42;97061.91;;;7.25;100.00
41624;BME280;27319;50.306;18.926;2024-02-23T16:33:43;97062.22;;;7.34;100.00
41624;BME280;27319;50.306;18.926;2024-02-23T16:36:44;97065.66;;;7.35;100.00
41624;BME280;27319;50.306;18.926;2024-02-23T16:39:45;97065.66;;;7.35;100.00
41624;BME280;27319;50.306;18.926;2024-02-23T16:42:46;97062.16;;;7.41;100.00
41624;BME280;27319;50.306;18.926;2024-02-23T16:46:07;97049.06;;;7.43;100.00
41624;BME280;27319;50.306;18.926;2024-02-23T16:50:07;97046.38;;;7.43;99.68
41624;BME280;27319;50.306;18.926;2024-02-23T16:54:08;97039.84;;;7.41;100.00
41624;BME280;27319;50.306;18.926;2024-02-23T16:58:09;97049.16;;;7.29;100.00
41624;BME280;27319;50.306;18.926;2024-02-23T17:02:13;97055.84;;;7.10;100.00
41624;BME280;27319;50.306;18.926;2024-02-23T17:06:13;97050.72;;;7.30;100.00
41624;BME280;27319;50.306;18.926;2024-02-23T17:10:14;97045.72;;;7.29;100.00
41624;BME280;27319;50.306;18.926;2024-02-23T17:14:15;97055.00;;;7.21;100.00
41624;BME280;27319;50.306;18.926;2024-02-23T17:18:16;97061.09;;;7.28;100.00
41624;BME280;27319;50.306;18.926;2024-02-23T17:22:16;97064.59;;;7.22;100.00
41624;BME280;27319;50.306;18.926;2024-02-23T17:26:17;97071.97;;;7.14;100.00
41624;BME280;27319;50.306;18.926;2024-02-23T17:30:18;97069.56;;;7.30;100.00
41624;BME280;27319;50.306;18.926;2024-02-23T17:34:19;97068.88;;;7.16;100.00
41624;BME280;27319;50.306;18.926;2024-02-23T17:38:20;97064.66;;;7.18;100.00
41624;BME280;27319;50.306;18.926;2024-02-23T17:42:20;97070.84;;;7.11;100.00
41624;BME280;27319;50.306;18.926;2024-02-23T17:46:21;97073.91;;;7.10;100.00
41624;BME280;27319;50.306;18.926;2024-02-23T17:50:22;97073.13;;;7.13;100.00
41624;BME280;27319;50.306;18.926;2024-02-23T17:54:03;97058.06;;;7.19;100.00
41624;BME280;27319;50.306;18.926;2024-02-23T17:57:24;97061.19;;;7.14;100.00
41624;BME280;27319;50.306;18.926;2024-02-23T18:01:24;97055.00;;;7.21;100.00
41624;BME280;27319;50.306;18.926;2024-02-23T18:05:25;97057.34;;;7.19;100.00
41624;BME280;27319;50.306;18.926;2024-02-23T18:09:26;97048.53;;;7.11;100.00
41624;BME280;27319;50.306;18.926;2024-02-23T18:13:27;97044.69;;;7.12;100.00
41624;BME280;27319;50.306;18.926;2024-02-23T18:17:27;97043.53;;;7.09;100.00
41624;BME280;27319;50.306;18.926;2024-02-23T18:21:08;97048.94;;;7.06;100.00
41624;BME280;27319;50.306;18.926;2024-02-23T18:24:11;97059.28;;;7.11;100.00
41624;BME280;27319;50.306;18.926;2024-02-23T18:27:12;97060.47;;;7.06;100.00
41624;BME280;27319;50.306;18.926;2024-02-23T18:30:13;97054.34;;;6.99;100.00
41624;BME280;27319;50.306;18.926;2024-02-23T18:33:15;97053.97;;;7.04;100.00
41624;BME280;27319;50.306;18.926;2024-02-23T18:36:36;97055.84;;;7.07;100.00
41624;BME280;27319;50.306;18.926;2024-02-23T18:40:37;97053.97;;;7.04;100.00
41624;BME280;27319;50.306;18.926;2024-02-23T18:44:38;97050.09;;;7.05;100.00
41624;BME280;27319;50.306;18.926;2024-02-23T18:48:39;97042.47;;;6.96;100.00
41624;BME280;27319;50.306;18.926;2024-02-23T18:52:40;97053.66;;;6.88;100.00
41624;BME280;27319;50.306;18.926;2024-02-23T18:56:40;97059.00;;;6.95;100.00
41624;BME280;27319;50.306;18.926;2024-02-23T19:00:41;97059.78;;;6.92;100.00
41624;BME280;27319;50.306;18.926;2024-02-23T19:04:42;97050.53;;;6.93;100.00
41624;BME280;27319;50.306;18.926;2024-02-23T19:08:23;97049.00;;;6.95;100.00
41624;BME280;27319;50.306;18.926;2024-02-23T19:11:24;97040.56;;;6.86;100.00
41624;BME280;27319;50.306;18.926;2024-02-23T19:14:25;97035.59;;;6.85;100.00
41624;BME280;27319;50.306;18.926;2024-02-23T19:17:25;97025.63;;;6.82;100.00
41624;BME280;27319;50.306;18.926;2024-02-23T19:20:46;97034.81;;;6.88;100.00
41624;BME280;27319;50.306;18.926;2024-02-23T19:24:47;97028.69;;;6.84;100.00
41624;BME280;27319;50.306;18.926;2024-02-23T19:28:49;97027.16;;;6.79;100.00
41624;BME280;27319;50.306;18.926;2024-02-23T19:32:49;97036.00;;;6.80;100.00
41624;BME280;27319;50.306;18.926;2024-02-23T19:36:49;97031.34;;;6.87;100.00
41624;BME280;27319;50.306;18.926;2024-02-23T19:40:50;97020.19;;;6.89;100.00
41624;BME280;27319;50.306;18.926;2024-02-23T19:44:51;97023.28;;;6.91;100.00